sensor_id;sensor_type;location;lat;lon;timestamp;temperature;humidity
23063;DHT22;11699;43.704;10.430;2023-05-07T00:00:04;14.90;99.90
23063;DHT22;11699;43.704;10.430;2023-05-07T00:02:35;14.90;99.90
23063;DHT22;11699;43.704;10.430;2023-05-07T00:05:03;14.90;99.90
23063;DHT22;11699;43.704;10.430;2023-05-07T00:07:31;14.70;99.90
23063;DHT22;11699;43.704;10.430;2023-05-07T00:09:58;14.80;99.90
23063;DHT22;11699;43.704;10.430;2023-05-07T00:12:26;14.70;99.90
23063;DHT22;11699;43.704;10.430;2023-05-07T00:14:53;14.80;99.90
23063;DHT22;11699;43.704;10.430;2023-05-07T00:17:20;14.80;99.90
23063;DHT22;11699;43.704;10.430;2023-05-07T00:19:49;14.80;99.90
23063;DHT22;11699;43.704;10.430;2023-05-07T00:22:16;14.80;99.90
23063;DHT22;11699;43.704;10.430;2023-05-07T00:24:43;14.80;99.90
23063;DHT22;11699;43.704;10.430;2023-05-07T00:27:10;14.90;99.90
23063;DHT22;11699;43.704;10.430;2023-05-07T00:29:38;14.90;99.90
23063;DHT22;11699;43.704;10.430;2023-05-07T00:32:05;14.90;99.90
23063;DHT22;11699;43.704;10.430;2023-05-07T00:34:33;14.90;99.90
23063;DHT22;11699;43.704;10.430;2023-05-07T00:37:01;14.70;99.90
23063;DHT22;11699;43.704;10.430;2023-05-07T00:39:28;14.70;99.90
23063;DHT22;11699;43.704;10.430;2023-05-07T00:41:56;14.60;99.90
23063;DHT22;11699;43.704;10.430;2023-05-07T00:44:23;14.60;99.90
23063;DHT22;11699;43.704;10.430;2023-05-07T00:46:51;14.60;99.90
23063;DHT22;11699;43.704;10.430;2023-05-07T00:49:18;14.50;99.90
23063;DHT22;11699;43.704;10.430;2023-05-07T00:51:47;14.50;99.90
23063;DHT22;11699;43.704;10.430;2023-05-07T00:54:16;14.60;99.90
23063;DHT22;11699;43.704;10.430;2023-05-07T00:56:44;14.60;99.90
23063;DHT22;11699;43.704;10.430;2023-05-07T00:59:11;14.60;99.90
23063;DHT22;11699;43.704;10.430;2023-05-07T01:01:39;14.70;99.90
23063;DHT22;11699;43.704;10.430;2023-05-07T01:04:06;14.70;99.90
23063;DHT22;11699;43.704;10.430;2023-05-07T01:06:33;14.60;99.90
23063;DHT22;11699;43.704;10.430;2023-05-07T01:09:01;14.50;99.90
23063;DHT22;11699;43.704;10.430;2023-05-07T01:11:32;14.50;99.90
23063;DHT22;11699;43.704;10.430;2023-05-07T01:13:59;14.40;99.90
23063;DHT22;11699;43.704;10.430;2023-05-07T01:16:27;14.40;99.90
23063;DHT22;11699;43.704;10.430;2023-05-07T01:18:54;14.30;99.90
23063;DHT22;11699;43.704;10.430;2023-05-07T01:21:25;14.30;99.90
23063;DHT22;11699;43.704;10.430;2023-05-07T01:23:55;14.40;99.90
23063;DHT22;11699;43.704;10.430;2023-05-07T01:26:22;14.50;99.90
23063;DHT22;11699;43.704;10.430;2023-05-07T01:28:50;14.50;99.90
23063;DHT22;11699;43.704;10.430;2023-05-07T01:31:17;14.40;99.90
23063;DHT22;11699;43.704;10.430;2023-05-07T01:33:46;14.30;99.90
23063;DHT22;11699;43.704;10.430;2023-05-07T01:36:17;14.30;99.90
23063;DHT22;11699;43.704;10.430;2023-05-07T01:38:45;14.10;99.90
23063;DHT22;11699;43.704;10.430;2023-05-07T01:41:14;14.00;99.90
23063;DHT22;11699;43.704;10.430;2023-05-07T01:43:42;14.00;99.90
23063;DHT22;11699;43.704;10.430;2023-05-07T01:46:10;13.90;99.90
23063;DHT22;11699;43.704;10.430;2023-05-07T01:48:39;13.80;99.90
23063;DHT22;11699;43.704;10.430;2023-05-07T01:51:07;13.90;99.90
23063;DHT22;11699;43.704;10.430;2023-05-07T01:53:36;13.90;99.90
23063;DHT22;11699;43.704;10.430;2023-05-07T01:56:04;13.80;99.90
23063;DHT22;11699;43.704;10.430;2023-05-07T01:58:33;13.80;99.90
23063;DHT22;11699;43.704;10.430;2023-05-07T02:01:00;13.80;99.90
23063;DHT22;11699;43.704;10.430;2023-05-07T02:03:27;13.70;99.90
23063;DHT22;11699;43.704;10.430;2023-05-07T02:05:54;13.70;99.90
23063;DHT22;11699;43.704;10.430;2023-05-07T02:08:22;13.70;99.90
23063;DHT22;11699;43.704;10.430;2023-05-07T02:10:49;13.80;99.90
23063;DHT22;11699;43.704;10.430;2023-05-07T02:13:17;13.80;99.90
23063;DHT22;11699;43.704;10.430;2023-05-07T02:15:47;13.70;99.90
23063;DHT22;11699;43.704;10.430;2023-05-07T02:18:17;13.80;99.90
23063;DHT22;11699;43.704;10.430;2023-05-07T02:20:44;13.80;99.90
23063;DHT22;11699;43.704;10.430;2023-05-07T02:23:11;13.80;99.90
23063;DHT22;11699;43.704;10.430;2023-05-07T02:25:38;13.80;99.90
23063;DHT22;11699;43.704;10.430;2023-05-07T02:28:05;13.90;99.90
23063;DHT22;11699;43.704;10.430;2023-05-07T02:30:32;13.90;99.90
23063;DHT22;11699;43.704;10.430;2023-05-07T02:33:01;13.90;99.90
23063;DHT22;11699;43.704;10.430;2023-05-07T02:35:28;13.80;99.90
23063;DHT22;11699;43.704;10.430;2023-05-07T02:37:56;13.80;99.90
23063;DHT22;11699;43.704;10.430;2023-05-07T02:40:23;13.80;99.90
23063;DHT22;11699;43.704;10.430;2023-05-07T02:42:50;13.80;99.90
23063;DHT22;11699;43.704;10.430;2023-05-07T02:45:18;13.80;99.90
23063;DHT22;11699;43.704;10.430;2023-05-07T02:47:45;13.90;99.90
23063;DHT22;11699;43.704;10.430;2023-05-07T02:50:13;13.90;99.90
23063;DHT22;11699;43.704;10.430;2023-05-07T02:52:41;13.80;99.90
23063;DHT22;11699;43.704;10.430;2023-05-07T02:55:09;13.80;99.90
23063;DHT22;11699;43.704;10.430;2023-05-07T02:57:36;13.90;99.90
23063;DHT22;11699;43.704;10.430;2023-05-07T03:00:14;13.90;99.90
23063;DHT22;11699;43.704;10.430;2023-05-07T03:02:41;13.40;99.90
23063;DHT22;11699;43.704;10.430;2023-05-07T03:05:08;13.50;99.90
23063;DHT22;11699;43.704;10.430;2023-05-07T03:07:38;13.60;99.90
23063;DHT22;11699;43.704;10.430;2023-05-07T03:10:06;13.50;99.90
23063;DHT22;11699;43.704;10.430;2023-05-07T03:12:33;13.30;99.90
23063;DHT22;11699;43.704;10.430;2023-05-07T03:15:01;13.10;99.90
23063;DHT22;11699;43.704;10.430;2023-05-07T03:17:28;12.80;99.90
23063;DHT22;11699;43.704;10.430;2023-05-07T03:19:55;12.80;99.90
23063;DHT22;11699;43.704;10.430;2023-05-07T03:22:23;12.80;99.90
23063;DHT22;11699;43.704;10.430;2023-05-07T03:24:53;12.80;99.90
23063;DHT22;11699;43.704;10.430;2023-05-07T03:27:20;12.80;99.90
23063;DHT22;11699;43.704;10.430;2023-05-07T03:29:47;13.00;99.90
23063;DHT22;11699;43.704;10.430;2023-05-07T03:32:14;13.00;99.90
23063;DHT22;11699;43.704;10.430;2023-05-07T03:34:43;12.80;99.90
23063;DHT22;11699;43.704;10.430;2023-05-07T03:37:10;12.80;99.90
23063;DHT22;11699;43.704;10.430;2023-05-07T03:39:37;12.70;99.90
23063;DHT22;11699;43.704;10.430;2023-05-07T03:42:06;12.50;99.90
23063;DHT22;11699;43.704;10.430;2023-05-07T03:44:33;12.50;99.90
23063;DHT22;11699;43.704;10.430;2023-05-07T03:47:02;12.40;99.90
23063;DHT22;11699;43.704;10.430;2023-05-07T03:49:29;12.40;99.90
23063;DHT22;11699;43.704;10.430;2023-05-07T03:51:56;12.40;99.90
23063;DHT22;11699;43.704;10.430;2023-05-07T03:54:24;12.50;99.90
23063;DHT22;11699;43.704;10.430;2023-05-07T03:56:51;12.60;99.90
23063;DHT22;11699;43.704;10.430;2023-05-07T03:59:19;12.60;99.90
23063;DHT22;11699;43.704;10.430;2023-05-07T04:01:47;12.60;99.90
23063;DHT22;11699;43.704;10.430;2023-05-07T04:04:14;12.50;99.90
23063;DHT22;11699;43.704;10.430;2023-05-07T04:06:41;12.50;99.90
23063;DHT22;11699;43.704;10.430;2023-05-07T04:09:09;12.50;99.90
23063;DHT22;11699;43.704;10.430;2023-05-07T04:11:36;12.60;99.90
23063;DHT22;11699;43.704;10.430;2023-05-07T04:14:03;12.60;99.90
23063;DHT22;11699;43.704;10.430;2023-05-07T04:16:32;12.70;99.90
23063;DHT22;11699;43.704;10.430;2023-05-07T04:18:59;12.70;99.90
23063;DHT22;11699;43.704;10.430;2023-05-07T04:21:26;12.70;99.90
23063;DHT22;11699;43.704;10.430;2023-05-07T04:23:54;12.70;99.90
23063;DHT22;11699;43.704;10.430;2023-05-07T04:26:21;12.70;99.90
23063;DHT22;11699;43.704;10.430;2023-05-07T04:28:50;12.70;99.90
23063;DHT22;11699;43.704;10.430;2023-05-07T04:31:17;12.80;99.90
23063;DHT22;11699;43.704;10.430;2023-05-07T04:33:46;12.80;99.90
23063;DHT22;11699;43.704;10.430;2023-05-07T04:36:13;12.90;99.90
23063;DHT22;11699;43.704;10.430;2023-05-07T04:38:41;12.80;99.90
23063;DHT22;11699;43.704;10.430;2023-05-07T04:41:09;12.90;99.90
23063;DHT22;11699;43.704;10.430;2023-05-07T04:43:37;12.90;99.90
23063;DHT22;11699;43.704;10.430;2023-05-07T04:46:04;12.90;99.90
23063;DHT22;11699;43.704;10.430;2023-05-07T04:48:31;12.90;99.90
23063;DHT22;11699;43.704;10.430;2023-05-07T04:51:00;12.80;99.90
23063;DHT22;11699;43.704;10.430;2023-05-07T04:53:27;12.90;99.90
23063;DHT22;11699;43.704;10.430;2023-05-07T04:55:55;13.00;99.90
23063;DHT22;11699;43.704;10.430;2023-05-07T04:58:23;13.10;99.90
23063;DHT22;11699;43.704;10.430;2023-05-07T05:00:50;13.10;99.90
23063;DHT22;11699;43.704;10.430;2023-05-07T05:03:18;13.30;99.90
23063;DHT22;11699;43.704;10.430;2023-05-07T05:05:45;13.50;99.90
23063;DHT22;11699;43.704;10.430;2023-05-07T05:08:13;13.60;99.90
23063;DHT22;11699;43.704;10.430;2023-05-07T05:10:41;13.60;99.90
23063;DHT22;11699;43.704;10.430;2023-05-07T05:13:09;13.70;99.90
23063;DHT22;11699;43.704;10.430;2023-05-07T05:15:38;13.80;99.90
23063;DHT22;11699;43.704;10.430;2023-05-07T05:18:05;14.00;99.90
23063;DHT22;11699;43.704;10.430;2023-05-07T05:20:32;14.10;99.90
23063;DHT22;11699;43.704;10.430;2023-05-07T05:23:00;14.10;99.90
23063;DHT22;11699;43.704;10.430;2023-05-07T05:25:29;14.20;99.90
23063;DHT22;11699;43.704;10.430;2023-05-07T05:27:56;14.20;99.90
23063;DHT22;11699;43.704;10.430;2023-05-07T05:30:23;14.40;99.90
23063;DHT22;11699;43.704;10.430;2023-05-07T05:32:51;14.60;99.90
23063;DHT22;11699;43.704;10.430;2023-05-07T05:35:18;14.70;99.90
23063;DHT22;11699;43.704;10.430;2023-05-07T05:37:45;14.80;99.90
23063;DHT22;11699;43.704;10.430;2023-05-07T05:40:14;15.00;99.90
23063;DHT22;11699;43.704;10.430;2023-05-07T05:42:42;15.20;99.90
23063;DHT22;11699;43.704;10.430;2023-05-07T05:45:10;15.30;99.90
23063;DHT22;11699;43.704;10.430;2023-05-07T05:47:37;15.50;99.90
23063;DHT22;11699;43.704;10.430;2023-05-07T05:50:06;15.50;99.90
23063;DHT22;11699;43.704;10.430;2023-05-07T05:52:33;15.60;99.90
23063;DHT22;11699;43.704;10.430;2023-05-07T05:55:01;15.70;99.90
23063;DHT22;11699;43.704;10.430;2023-05-07T05:57:28;15.90;99.90
23063;DHT22;11699;43.704;10.430;2023-05-07T05:59:57;16.10;99.90
23063;DHT22;11699;43.704;10.430;2023-05-07T06:02:24;16.20;99.90
23063;DHT22;11699;43.704;10.430;2023-05-07T06:04:52;16.20;99.90
23063;DHT22;11699;43.704;10.430;2023-05-07T06:07:19;16.20;99.90
23063;DHT22;11699;43.704;10.430;2023-05-07T06:09:46;16.30;99.90
23063;DHT22;11699;43.704;10.430;2023-05-07T06:12:14;16.30;99.90
23063;DHT22;11699;43.704;10.430;2023-05-07T06:14:43;16.40;99.90
23063;DHT22;11699;43.704;10.430;2023-05-07T06:17:11;16.50;99.90
23063;DHT22;11699;43.704;10.430;2023-05-07T06:19:39;16.60;99.90
23063;DHT22;11699;43.704;10.430;2023-05-07T06:22:06;16.70;99.90
23063;DHT22;11699;43.704;10.430;2023-05-07T06:24:34;16.80;99.90
23063;DHT22;11699;43.704;10.430;2023-05-07T06:27:01;16.80;99.90
23063;DHT22;11699;43.704;10.430;2023-05-07T06:29:29;16.90;99.90
23063;DHT22;11699;43.704;10.430;2023-05-07T06:32:06;16.90;99.90
23063;DHT22;11699;43.704;10.430;2023-05-07T06:34:35;16.90;99.90
23063;DHT22;11699;43.704;10.430;2023-05-07T06:37:03;17.00;99.90
23063;DHT22;11699;43.704;10.430;2023-05-07T06:39:31;17.10;99.90
23063;DHT22;11699;43.704;10.430;2023-05-07T06:41:58;17.30;99.90
23063;DHT22;11699;43.704;10.430;2023-05-07T06:44:25;17.50;99.90
23063;DHT22;11699;43.704;10.430;2023-05-07T06:46:52;17.70;99.90
23063;DHT22;11699;43.704;10.430;2023-05-07T06:49:20;18.00;99.90
23063;DHT22;11699;43.704;10.430;2023-05-07T06:51:48;18.10;99.90
23063;DHT22;11699;43.704;10.430;2023-05-07T06:54:16;18.20;99.90
23063;DHT22;11699;43.704;10.430;2023-05-07T06:56:43;18.80;99.90
23063;DHT22;11699;43.704;10.430;2023-05-07T06:59:10;20.10;99.90
23063;DHT22;11699;43.704;10.430;2023-05-07T07:01:37;21.50;99.90
23063;DHT22;11699;43.704;10.430;2023-05-07T07:04:04;23.00;99.90
23063;DHT22;11699;43.704;10.430;2023-05-07T07:06:32;24.30;99.90
23063;DHT22;11699;43.704;10.430;2023-05-07T07:09:00;25.00;99.90
23063;DHT22;11699;43.704;10.430;2023-05-07T07:11:28;25.80;99.90
23063;DHT22;11699;43.704;10.430;2023-05-07T07:13:55;26.10;99.90
23063;DHT22;11699;43.704;10.430;2023-05-07T07:16:22;26.20;99.90
23063;DHT22;11699;43.704;10.430;2023-05-07T07:18:49;26.70;99.90
23063;DHT22;11699;43.704;10.430;2023-05-07T07:21:17;25.70;99.90
23063;DHT22;11699;43.704;10.430;2023-05-07T07:23:44;25.00;99.90
23063;DHT22;11699;43.704;10.430;2023-05-07T07:26:14;25.10;99.90
23063;DHT22;11699;43.704;10.430;2023-05-07T07:28:44;25.60;99.90
23063;DHT22;11699;43.704;10.430;2023-05-07T07:31:12;26.20;99.90
23063;DHT22;11699;43.704;10.430;2023-05-07T07:33:40;26.10;99.90
23063;DHT22;11699;43.704;10.430;2023-05-07T07:36:07;25.60;99.90
23063;DHT22;11699;43.704;10.430;2023-05-07T07:38:35;25.70;99.90
23063;DHT22;11699;43.704;10.430;2023-05-07T07:41:02;26.30;99.90
23063;DHT22;11699;43.704;10.430;2023-05-07T07:43:31;27.30;99.90
23063;DHT22;11699;43.704;10.430;2023-05-07T07:45:58;28.00;99.90
23063;DHT22;11699;43.704;10.430;2023-05-07T07:48:26;28.30;99.90
23063;DHT22;11699;43.704;10.430;2023-05-07T07:50:53;28.70;99.90
23063;DHT22;11699;43.704;10.430;2023-05-07T07:53:21;28.60;99.90
23063;DHT22;11699;43.704;10.430;2023-05-07T07:55:48;29.60;99.90
23063;DHT22;11699;43.704;10.430;2023-05-07T07:58:16;30.10;99.90
23063;DHT22;11699;43.704;10.430;2023-05-07T08:00:44;29.90;99.90
23063;DHT22;11699;43.704;10.430;2023-05-07T08:03:13;29.90;99.90
23063;DHT22;11699;43.704;10.430;2023-05-07T08:05:42;29.30;99.70
23063;DHT22;11699;43.704;10.430;2023-05-07T08:08:10;28.70;99.90
23063;DHT22;11699;43.704;10.430;2023-05-07T08:10:37;28.70;99.20
23063;DHT22;11699;43.704;10.430;2023-05-07T08:13:05;28.60;99.00
23063;DHT22;11699;43.704;10.430;2023-05-07T08:15:33;28.80;99.60
23063;DHT22;11699;43.704;10.430;2023-05-07T08:18:02;29.00;99.00
23063;DHT22;11699;43.704;10.430;2023-05-07T08:20:29;29.90;99.40
23063;DHT22;11699;43.704;10.430;2023-05-07T08:22:57;30.10;98.60
23063;DHT22;11699;43.704;10.430;2023-05-07T08:25:24;29.70;98.80
23063;DHT22;11699;43.704;10.430;2023-05-07T08:27:51;30.20;98.60
23063;DHT22;11699;43.704;10.430;2023-05-07T08:30:19;29.50;99.10
23063;DHT22;11699;43.704;10.430;2023-05-07T08:32:46;29.80;99.40
23063;DHT22;11699;43.704;10.430;2023-05-07T08:35:15;30.00;99.10
23063;DHT22;11699;43.704;10.430;2023-05-07T08:37:42;29.60;97.20
23063;DHT22;11699;43.704;10.430;2023-05-07T08:40:10;29.10;97.10
23063;DHT22;11699;43.704;10.430;2023-05-07T08:42:38;29.50;96.90
23063;DHT22;11699;43.704;10.430;2023-05-07T08:45:09;29.50;96.20
23063;DHT22;11699;43.704;10.430;2023-05-07T08:47:42;29.50;97.10
23063;DHT22;11699;43.704;10.430;2023-05-07T08:50:11;29.90;98.00
23063;DHT22;11699;43.704;10.430;2023-05-07T08:52:40;30.30;97.20
23063;DHT22;11699;43.704;10.430;2023-05-07T08:55:09;30.20;94.60
23063;DHT22;11699;43.704;10.430;2023-05-07T08:57:37;29.50;97.00
23063;DHT22;11699;43.704;10.430;2023-05-07T09:00:05;29.80;97.70
23063;DHT22;11699;43.704;10.430;2023-05-07T09:02:33;30.10;96.70
23063;DHT22;11699;43.704;10.430;2023-05-07T09:05:02;30.30;96.10
23063;DHT22;11699;43.704;10.430;2023-05-07T09:07:30;30.30;95.50
23063;DHT22;11699;43.704;10.430;2023-05-07T09:10:01;30.40;96.40
23063;DHT22;11699;43.704;10.430;2023-05-07T09:12:28;31.00;96.00
23063;DHT22;11699;43.704;10.430;2023-05-07T09:14:56;31.00;95.10
23063;DHT22;11699;43.704;10.430;2023-05-07T09:17:23;31.10;94.70
23063;DHT22;11699;43.704;10.430;2023-05-07T09:19:50;31.20;95.40
23063;DHT22;11699;43.704;10.430;2023-05-07T09:22:19;31.00;94.60
23063;DHT22;11699;43.704;10.430;2023-05-07T09:24:47;31.20;94.50
23063;DHT22;11699;43.704;10.430;2023-05-07T09:27:17;31.30;94.40
23063;DHT22;11699;43.704;10.430;2023-05-07T09:29:45;31.40;94.90
23063;DHT22;11699;43.704;10.430;2023-05-07T09:32:12;31.30;94.50
23063;DHT22;11699;43.704;10.430;2023-05-07T09:34:42;30.20;93.20
23063;DHT22;11699;43.704;10.430;2023-05-07T09:37:12;29.70;94.70
23063;DHT22;11699;43.704;10.430;2023-05-07T09:39:41;30.10;96.00
23063;DHT22;11699;43.704;10.430;2023-05-07T09:42:09;30.50;95.20
23063;DHT22;11699;43.704;10.430;2023-05-07T09:44:38;30.80;94.50
23063;DHT22;11699;43.704;10.430;2023-05-07T09:47:07;30.40;94.80
23063;DHT22;11699;43.704;10.430;2023-05-07T09:49:36;30.70;95.10
23063;DHT22;11699;43.704;10.430;2023-05-07T09:52:05;30.80;94.50
23063;DHT22;11699;43.704;10.430;2023-05-07T09:54:35;30.80;94.80
23063;DHT22;11699;43.704;10.430;2023-05-07T09:57:04;31.50;94.70
23063;DHT22;11699;43.704;10.430;2023-05-07T09:59:32;31.40;93.70
23063;DHT22;11699;43.704;10.430;2023-05-07T10:02:03;30.90;94.90
23063;DHT22;11699;43.704;10.430;2023-05-07T10:04:31;31.00;94.80
23063;DHT22;11699;43.704;10.430;2023-05-07T10:06:59;30.60;95.20
23063;DHT22;11699;43.704;10.430;2023-05-07T10:09:27;31.00;95.90
23063;DHT22;11699;43.704;10.430;2023-05-07T10:11:55;31.20;96.70
23063;DHT22;11699;43.704;10.430;2023-05-07T10:14:23;31.40;96.20
23063;DHT22;11699;43.704;10.430;2023-05-07T10:16:53;31.40;96.30
23063;DHT22;11699;43.704;10.430;2023-05-07T10:19:23;31.50;95.80
23063;DHT22;11699;43.704;10.430;2023-05-07T10:21:54;31.40;95.70
23063;DHT22;11699;43.704;10.430;2023-05-07T10:24:27;31.60;95.30
23063;DHT22;11699;43.704;10.430;2023-05-07T10:26:57;31.40;96.20
23063;DHT22;11699;43.704;10.430;2023-05-07T10:29:34;30.60;96.20
23063;DHT22;11699;43.704;10.430;2023-05-07T10:32:16;30.80;96.40
23063;DHT22;11699;43.704;10.430;2023-05-07T10:34:48;30.90;95.70
23063;DHT22;11699;43.704;10.430;2023-05-07T10:37:18;31.00;95.80
23063;DHT22;11699;43.704;10.430;2023-05-07T10:39:45;31.20;94.90
23063;DHT22;11699;43.704;10.430;2023-05-07T10:42:14;30.30;95.30
23063;DHT22;11699;43.704;10.430;2023-05-07T10:44:41;30.80;97.00
23063;DHT22;11699;43.704;10.430;2023-05-07T10:47:10;31.20;95.90
23063;DHT22;11699;43.704;10.430;2023-05-07T10:50:20;31.40;95.30
23063;DHT22;11699;43.704;10.430;2023-05-07T10:53:21;30.70;95.20
23063;DHT22;11699;43.704;10.430;2023-05-07T10:55:51;30.60;95.10
23063;DHT22;11699;43.704;10.430;2023-05-07T10:58:25;30.60;96.00
23063;DHT22;11699;43.704;10.430;2023-05-07T11:00:57;30.50;96.30
23063;DHT22;11699;43.704;10.430;2023-05-07T11:03:25;31.00;95.50
23063;DHT22;11699;43.704;10.430;2023-05-07T11:06:14;30.40;96.50
23063;DHT22;11699;43.704;10.430;2023-05-07T11:08:54;29.90;97.50
23063;DHT22;11699;43.704;10.430;2023-05-07T11:11:46;29.60;96.90
23063;DHT22;11699;43.704;10.430;2023-05-07T11:14:14;29.40;96.90
23063;DHT22;11699;43.704;10.430;2023-05-07T11:16:42;29.50;97.40
23063;DHT22;11699;43.704;10.430;2023-05-07T11:19:10;29.50;97.40
23063;DHT22;11699;43.704;10.430;2023-05-07T11:21:39;29.80;97.30
23063;DHT22;11699;43.704;10.430;2023-05-07T11:24:07;29.70;97.00
23063;DHT22;11699;43.704;10.430;2023-05-07T11:26:48;29.60;96.60
23063;DHT22;11699;43.704;10.430;2023-05-07T11:29:17;30.10;96.80
23063;DHT22;11699;43.704;10.430;2023-05-07T11:31:48;30.20;96.60
23063;DHT22;11699;43.704;10.430;2023-05-07T11:34:21;30.00;96.20
23063;DHT22;11699;43.704;10.430;2023-05-07T11:36:51;30.20;96.00
23063;DHT22;11699;43.704;10.430;2023-05-07T11:39:26;30.10;96.20
23063;DHT22;11699;43.704;10.430;2023-05-07T11:41:54;30.10;95.60
23063;DHT22;11699;43.704;10.430;2023-05-07T11:44:21;29.90;95.30
23063;DHT22;11699;43.704;10.430;2023-05-07T11:46:49;29.80;95.50
23063;DHT22;11699;43.704;10.430;2023-05-07T11:49:17;29.50;96.30
23063;DHT22;11699;43.704;10.430;2023-05-07T11:51:44;30.00;96.00
23063;DHT22;11699;43.704;10.430;2023-05-07T11:54:15;29.90;95.20
23063;DHT22;11699;43.704;10.430;2023-05-07T11:56:44;29.60;95.70
23063;DHT22;11699;43.704;10.430;2023-05-07T11:59:17;29.70;95.60
23063;DHT22;11699;43.704;10.430;2023-05-07T12:01:46;29.60;96.40
23063;DHT22;11699;43.704;10.430;2023-05-07T12:04:13;29.80;96.10
23063;DHT22;11699;43.704;10.430;2023-05-07T12:06:40;30.30;95.70
23063;DHT22;11699;43.704;10.430;2023-05-07T12:09:08;30.80;95.20
23063;DHT22;11699;43.704;10.430;2023-05-07T12:11:38;30.60;95.00
23063;DHT22;11699;43.704;10.430;2023-05-07T12:14:06;30.80;94.10
23063;DHT22;11699;43.704;10.430;2023-05-07T12:16:33;30.70;95.40
23063;DHT22;11699;43.704;10.430;2023-05-07T12:19:01;30.80;94.90
23063;DHT22;11699;43.704;10.430;2023-05-07T12:21:29;30.50;94.30
23063;DHT22;11699;43.704;10.430;2023-05-07T12:23:56;30.90;94.40
23063;DHT22;11699;43.704;10.430;2023-05-07T12:26:24;30.80;94.20
23063;DHT22;11699;43.704;10.430;2023-05-07T12:28:53;30.50;94.40
23063;DHT22;11699;43.704;10.430;2023-05-07T12:31:20;30.70;94.10
23063;DHT22;11699;43.704;10.430;2023-05-07T12:33:47;30.70;94.40
23063;DHT22;11699;43.704;10.430;2023-05-07T12:36:15;31.00;94.10
23063;DHT22;11699;43.704;10.430;2023-05-07T12:38:43;31.00;93.80
23063;DHT22;11699;43.704;10.430;2023-05-07T12:41:11;30.30;94.50
23063;DHT22;11699;43.704;10.430;2023-05-07T12:43:38;30.40;94.20
23063;DHT22;11699;43.704;10.430;2023-05-07T12:46:07;30.40;93.80
23063;DHT22;11699;43.704;10.430;2023-05-07T12:48:37;30.70;94.80
23063;DHT22;11699;43.704;10.430;2023-05-07T12:51:05;30.40;94.00
23063;DHT22;11699;43.704;10.430;2023-05-07T12:53:33;30.40;93.20
23063;DHT22;11699;43.704;10.430;2023-05-07T12:56:02;30.30;93.90
23063;DHT22;11699;43.704;10.430;2023-05-07T12:58:33;30.40;92.10
23063;DHT22;11699;43.704;10.430;2023-05-07T13:01:03;30.40;92.90
23063;DHT22;11699;43.704;10.430;2023-05-07T13:03:34;30.40;92.50
23063;DHT22;11699;43.704;10.430;2023-05-07T13:06:03;30.20;92.30
23063;DHT22;11699;43.704;10.430;2023-05-07T13:08:31;30.10;93.60
23063;DHT22;11699;43.704;10.430;2023-05-07T13:11:00;30.60;93.00
23063;DHT22;11699;43.704;10.430;2023-05-07T13:13:29;30.60;92.30
23063;DHT22;11699;43.704;10.430;2023-05-07T13:15:57;30.60;91.90
23063;DHT22;11699;43.704;10.430;2023-05-07T13:18:25;30.50;91.80
23063;DHT22;11699;43.704;10.430;2023-05-07T13:20:54;30.50;91.60
23063;DHT22;11699;43.704;10.430;2023-05-07T13:23:21;30.80;92.10
23063;DHT22;11699;43.704;10.430;2023-05-07T13:25:49;31.00;92.00
23063;DHT22;11699;43.704;10.430;2023-05-07T13:28:16;30.80;92.40
23063;DHT22;11699;43.704;10.430;2023-05-07T13:30:44;30.60;91.80
23063;DHT22;11699;43.704;10.430;2023-05-07T13:33:11;30.40;92.50
23063;DHT22;11699;43.704;10.430;2023-05-07T13:35:39;30.50;92.20
23063;DHT22;11699;43.704;10.430;2023-05-07T13:38:07;30.40;92.30
23063;DHT22;11699;43.704;10.430;2023-05-07T13:40:34;30.30;92.70
23063;DHT22;11699;43.704;10.430;2023-05-07T13:43:02;29.90;92.50
23063;DHT22;11699;43.704;10.430;2023-05-07T13:45:29;29.90;92.40
23063;DHT22;11699;43.704;10.430;2023-05-07T13:47:57;29.80;93.20
23063;DHT22;11699;43.704;10.430;2023-05-07T13:50:24;29.80;93.30
23063;DHT22;11699;43.704;10.430;2023-05-07T13:52:52;30.10;92.90
23063;DHT22;11699;43.704;10.430;2023-05-07T13:55:23;30.00;92.70
23063;DHT22;11699;43.704;10.430;2023-05-07T13:57:55;29.60;92.80
23063;DHT22;11699;43.704;10.430;2023-05-07T14:00:23;29.60;92.20
23063;DHT22;11699;43.704;10.430;2023-05-07T14:02:50;29.60;92.50
23063;DHT22;11699;43.704;10.430;2023-05-07T14:05:18;29.30;91.70
23063;DHT22;11699;43.704;10.430;2023-05-07T14:07:45;29.10;91.80
23063;DHT22;11699;43.704;10.430;2023-05-07T14:10:13;28.60;91.70
23063;DHT22;11699;43.704;10.430;2023-05-07T14:12:41;28.40;92.00
23063;DHT22;11699;43.704;10.430;2023-05-07T14:15:09;28.10;91.80
23063;DHT22;11699;43.704;10.430;2023-05-07T14:17:37;28.00;92.50
23063;DHT22;11699;43.704;10.430;2023-05-07T14:20:05;27.80;91.90
23063;DHT22;11699;43.704;10.430;2023-05-07T14:22:33;27.80;91.70
23063;DHT22;11699;43.704;10.430;2023-05-07T14:25:00;27.60;91.60
23063;DHT22;11699;43.704;10.430;2023-05-07T14:27:27;27.60;92.50
23063;DHT22;11699;43.704;10.430;2023-05-07T14:29:56;27.40;91.90
23063;DHT22;11699;43.704;10.430;2023-05-07T14:32:23;27.20;91.80
23063;DHT22;11699;43.704;10.430;2023-05-07T14:34:51;27.20;92.10
23063;DHT22;11699;43.704;10.430;2023-05-07T14:37:18;27.10;92.50
23063;DHT22;11699;43.704;10.430;2023-05-07T14:39:45;27.10;93.50
23063;DHT22;11699;43.704;10.430;2023-05-07T14:42:13;26.70;93.50
23063;DHT22;11699;43.704;10.430;2023-05-07T14:44:40;26.50;93.10
23063;DHT22;11699;43.704;10.430;2023-05-07T14:47:08;26.50;94.10
23063;DHT22;11699;43.704;10.430;2023-05-07T14:49:36;26.60;94.70
23063;DHT22;11699;43.704;10.430;2023-05-07T14:52:04;26.50;95.00
23063;DHT22;11699;43.704;10.430;2023-05-07T14:54:33;26.20;95.20
23063;DHT22;11699;43.704;10.430;2023-05-07T14:57:01;26.10;95.60
23063;DHT22;11699;43.704;10.430;2023-05-07T14:59:28;26.10;96.00
23063;DHT22;11699;43.704;10.430;2023-05-07T15:01:56;26.00;96.30
23063;DHT22;11699;43.704;10.430;2023-05-07T15:04:25;26.00;97.00
23063;DHT22;11699;43.704;10.430;2023-05-07T15:06:52;26.00;96.80
23063;DHT22;11699;43.704;10.430;2023-05-07T15:09:20;25.80;97.40
23063;DHT22;11699;43.704;10.430;2023-05-07T15:11:47;25.80;97.50
23063;DHT22;11699;43.704;10.430;2023-05-07T15:14:15;25.80;97.50
23063;DHT22;11699;43.704;10.430;2023-05-07T15:16:42;25.80;97.80
23063;DHT22;11699;43.704;10.430;2023-05-07T15:19:09;25.60;98.60
23063;DHT22;11699;43.704;10.430;2023-05-07T15:21:38;25.70;99.00